sensor_id;sensor_type;location;lat;lon;timestamp;temperature;humidity
13589;DHT22;6865;52.552;13.434;2022-09-01T00:00:00;15.30;99.90
13589;DHT22;6865;52.552;13.434;2022-09-01T00:02:29;15.30;99.90
13589;DHT22;6865;52.552;13.434;2022-09-01T00:04:56;15.30;99.90
13589;DHT22;6865;52.552;13.434;2022-09-01T00:07:28;15.30;99.90
13589;DHT22;6865;52.552;13.434;2022-09-01T00:09:58;15.30;99.90
13589;DHT22;6865;52.552;13.434;2022-09-01T00:12:25;15.30;99.90
13589;DHT22;6865;52.552;13.434;2022-09-01T00:14:52;15.30;99.90
13589;DHT22;6865;52.552;13.434;2022-09-01T00:17:20;15.00;99.90
13589;DHT22;6865;52.552;13.434;2022-09-01T00:19:46;15.60;99.90
13589;DHT22;6865;52.552;13.434;2022-09-01T00:22:13;15.30;99.90
13589;DHT22;6865;52.552;13.434;2022-09-01T00:24:40;15.30;99.90
13589;DHT22;6865;52.552;13.434;2022-09-01T00:27:06;15.30;99.90
13589;DHT22;6865;52.552;13.434;2022-09-01T00:29:34;15.30;99.90
13589;DHT22;6865;52.552;13.434;2022-09-01T00:32:01;15.30;99.90
13589;DHT22;6865;52.552;13.434;2022-09-01T00:34:28;15.30;99.90
13589;DHT22;6865;52.552;13.434;2022-09-01T00:36:55;15.20;99.90
13589;DHT22;6865;52.552;13.434;2022-09-01T00:39:21;15.20;99.90
13589;DHT22;6865;52.552;13.434;2022-09-01T00:41:48;15.20;99.90
13589;DHT22;6865;52.552;13.434;2022-09-01T00:44:18;15.10;99.90
13589;DHT22;6865;52.552;13.434;2022-09-01T00:46:50;15.10;99.90
13589;DHT22;6865;52.552;13.434;2022-09-01T00:49:23;15.10;99.90
13589;DHT22;6865;52.552;13.434;2022-09-01T00:51:55;14.90;99.90
13589;DHT22;6865;52.552;13.434;2022-09-01T00:54:28;15.00;99.90
13589;DHT22;6865;52.552;13.434;2022-09-01T00:56:56;15.00;99.90
13589;DHT22;6865;52.552;13.434;2022-09-01T00:59:25;14.90;99.90
13589;DHT22;6865;52.552;13.434;2022-09-01T01:01:54;14.90;99.90
13589;DHT22;6865;52.552;13.434;2022-09-01T01:04:21;14.90;99.90
13589;DHT22;6865;52.552;13.434;2022-09-01T01:06:54;14.90;99.90
13589;DHT22;6865;52.552;13.434;2022-09-01T01:09:29;14.80;99.90
13589;DHT22;6865;52.552;13.434;2022-09-01T01:11:59;14.80;99.90
13589;DHT22;6865;52.552;13.434;2022-09-01T01:14:27;14.70;99.90
13589;DHT22;6865;52.552;13.434;2022-09-01T01:16:59;14.80;99.90
13589;DHT22;6865;52.552;13.434;2022-09-01T01:19:44;14.70;99.90
13589;DHT22;6865;52.552;13.434;2022-09-01T01:22:43;14.70;99.90
13589;DHT22;6865;52.552;13.434;2022-09-01T01:25:40;14.60;99.90
13589;DHT22;6865;52.552;13.434;2022-09-01T01:28:18;14.60;99.90
13589;DHT22;6865;52.552;13.434;2022-09-01T01:30:53;14.50;99.90
13589;DHT22;6865;52.552;13.434;2022-09-01T01:33:30;14.50;99.90
13589;DHT22;6865;52.552;13.434;2022-09-01T01:35:57;14.40;99.90
13589;DHT22;6865;52.552;13.434;2022-09-01T01:38:27;14.40;99.90
13589;DHT22;6865;52.552;13.434;2022-09-01T01:40:55;14.30;99.90
13589;DHT22;6865;52.552;13.434;2022-09-01T01:43:22;14.30;99.90
13589;DHT22;6865;52.552;13.434;2022-09-01T01:45:52;14.30;99.90
13589;DHT22;6865;52.552;13.434;2022-09-01T01:48:21;14.30;99.90
13589;DHT22;6865;52.552;13.434;2022-09-01T01:50:51;14.30;99.90
13589;DHT22;6865;52.552;13.434;2022-09-01T01:53:18;14.30;99.90
13589;DHT22;6865;52.552;13.434;2022-09-01T01:55:46;14.30;99.90
13589;DHT22;6865;52.552;13.434;2022-09-01T01:58:20;14.20;99.90
13589;DHT22;6865;52.552;13.434;2022-09-01T02:00:49;14.20;99.90
13589;DHT22;6865;52.552;13.434;2022-09-01T02:03:19;14.00;99.90
13589;DHT22;6865;52.552;13.434;2022-09-01T02:05:49;14.20;99.90
13589;DHT22;6865;52.552;13.434;2022-09-01T02:08:17;14.10;99.90
13589;DHT22;6865;52.552;13.434;2022-09-01T02:10:49;14.30;99.90
13589;DHT22;6865;52.552;13.434;2022-09-01T02:13:18;15.20;99.90
13589;DHT22;6865;52.552;13.434;2022-09-01T02:15:52;13.90;99.90
13589;DHT22;6865;52.552;13.434;2022-09-01T02:18:22;13.90;99.90
13589;DHT22;6865;52.552;13.434;2022-09-01T02:20:51;13.90;99.90
13589;DHT22;6865;52.552;13.434;2022-09-01T02:23:20;13.80;99.90
13589;DHT22;6865;52.552;13.434;2022-09-01T02:25:55;13.70;99.90
13589;DHT22;6865;52.552;13.434;2022-09-01T02:28:43;13.80;99.90
13589;DHT22;6865;52.552;13.434;2022-09-01T02:31:11;13.80;99.90
13589;DHT22;6865;52.552;13.434;2022-09-01T02:33:39;13.70;99.90
13589;DHT22;6865;52.552;13.434;2022-09-01T02:36:09;13.80;99.90
13589;DHT22;6865;52.552;13.434;2022-09-01T02:38:40;13.80;99.90
13589;DHT22;6865;52.552;13.434;2022-09-01T02:41:13;13.70;99.90
13589;DHT22;6865;52.552;13.434;2022-09-01T02:43:41;13.70;99.90
13589;DHT22;6865;52.552;13.434;2022-09-01T02:46:09;13.60;99.90
13589;DHT22;6865;52.552;13.434;2022-09-01T02:48:39;13.60;99.90
13589;DHT22;6865;52.552;13.434;2022-09-01T02:51:12;13.60;99.90
13589;DHT22;6865;52.552;13.434;2022-09-01T02:53:40;13.50;99.90
13589;DHT22;6865;52.552;13.434;2022-09-01T02:56:09;13.40;99.90
13589;DHT22;6865;52.552;13.434;2022-09-01T02:58:42;13.20;99.90
13589;DHT22;6865;52.552;13.434;2022-09-01T03:01:21;13.20;99.90
13589;DHT22;6865;52.552;13.434;2022-09-01T03:03:52;13.20;99.90
13589;DHT22;6865;52.552;13.434;2022-09-01T03:06:20;13.10;99.90
13589;DHT22;6865;52.552;13.434;2022-09-01T03:08:51;13.10;99.90
13589;DHT22;6865;52.552;13.434;2022-09-01T03:11:18;13.00;99.90
13589;DHT22;6865;52.552;13.434;2022-09-01T03:13:45;13.00;99.90
13589;DHT22;6865;52.552;13.434;2022-09-01T03:16:12;13.00;99.90
13589;DHT22;6865;52.552;13.434;2022-09-01T03:18:39;12.90;99.90
13589;DHT22;6865;52.552;13.434;2022-09-01T03:21:07;12.90;99.90
13589;DHT22;6865;52.552;13.434;2022-09-01T03:23:34;12.80;99.90
13589;DHT22;6865;52.552;13.434;2022-09-01T03:26:01;12.80;99.90
13589;DHT22;6865;52.552;13.434;2022-09-01T03:28:28;15.00;99.90
13589;DHT22;6865;52.552;13.434;2022-09-01T03:30:56;12.80;99.90
13589;DHT22;6865;52.552;13.434;2022-09-01T03:33:25;12.80;99.90
13589;DHT22;6865;52.552;13.434;2022-09-01T03:35:53;12.80;99.90
13589;DHT22;6865;52.552;13.434;2022-09-01T03:38:20;12.80;99.90
13589;DHT22;6865;52.552;13.434;2022-09-01T03:40:49;12.70;99.90
13589;DHT22;6865;52.552;13.434;2022-09-01T03:43:19;12.70;99.90
13589;DHT22;6865;52.552;13.434;2022-09-01T03:45:49;12.70;99.90
13589;DHT22;6865;52.552;13.434;2022-09-01T03:48:16;12.60;99.90
13589;DHT22;6865;52.552;13.434;2022-09-01T03:50:44;12.50;99.90
13589;DHT22;6865;52.552;13.434;2022-09-01T03:53:15;12.50;99.90
13589;DHT22;6865;52.552;13.434;2022-09-01T03:55:43;12.50;99.90
13589;DHT22;6865;52.552;13.434;2022-09-01T03:58:12;12.50;99.90
13589;DHT22;6865;52.552;13.434;2022-09-01T04:00:42;12.40;99.90
13589;DHT22;6865;52.552;13.434;2022-09-01T04:03:15;12.40;99.90
13589;DHT22;6865;52.552;13.434;2022-09-01T04:05:54;12.40;99.90
13589;DHT22;6865;52.552;13.434;2022-09-01T04:08:22;12.40;99.90
13589;DHT22;6865;52.552;13.434;2022-09-01T04:11:02;12.30;99.90
13589;DHT22;6865;52.552;13.434;2022-09-01T04:13:34;12.30;99.90
13589;DHT22;6865;52.552;13.434;2022-09-01T04:16:02;12.20;99.90
13589;DHT22;6865;52.552;13.434;2022-09-01T04:18:29;12.20;99.90
13589;DHT22;6865;52.552;13.434;2022-09-01T04:20:57;12.10;99.90
13589;DHT22;6865;52.552;13.434;2022-09-01T04:23:27;12.10;99.90
13589;DHT22;6865;52.552;13.434;2022-09-01T04:26:08;12.10;99.90
13589;DHT22;6865;52.552;13.434;2022-09-01T04:28:39;12.10;99.90
13589;DHT22;6865;52.552;13.434;2022-09-01T04:31:08;11.70;99.90
13589;DHT22;6865;52.552;13.434;2022-09-01T04:33:36;12.10;99.90
13589;DHT22;6865;52.552;13.434;2022-09-01T04:36:12;12.10;99.90
13589;DHT22;6865;52.552;13.434;2022-09-01T04:38:39;12.10;99.90
13589;DHT22;6865;52.552;13.434;2022-09-01T04:41:06;12.10;99.90
13589;DHT22;6865;52.552;13.434;2022-09-01T04:43:34;12.10;99.90
13589;DHT22;6865;52.552;13.434;2022-09-01T04:46:01;12.10;99.90
13589;DHT22;6865;52.552;13.434;2022-09-01T04:48:28;12.10;99.90
13589;DHT22;6865;52.552;13.434;2022-09-01T04:50:57;12.10;99.90
13589;DHT22;6865;52.552;13.434;2022-09-01T04:53:24;12.00;99.90
13589;DHT22;6865;52.552;13.434;2022-09-01T04:56:02;12.00;99.90
13589;DHT22;6865;52.552;13.434;2022-09-01T04:58:33;12.00;99.90
13589;DHT22;6865;52.552;13.434;2022-09-01T05:01:00;12.00;99.90
13589;DHT22;6865;52.552;13.434;2022-09-01T05:03:32;12.00;99.90
13589;DHT22;6865;52.552;13.434;2022-09-01T05:05:59;12.00;99.90
13589;DHT22;6865;52.552;13.434;2022-09-01T05:08:29;12.00;99.90
13589;DHT22;6865;52.552;13.434;2022-09-01T05:11:03;12.10;99.90
13589;DHT22;6865;52.552;13.434;2022-09-01T05:13:33;12.10;99.90
13589;DHT22;6865;52.552;13.434;2022-09-01T05:16:04;12.10;99.90
13589;DHT22;6865;52.552;13.434;2022-09-01T05:18:31;12.10;99.90
13589;DHT22;6865;52.552;13.434;2022-09-01T05:21:04;12.10;99.90
13589;DHT22;6865;52.552;13.434;2022-09-01T05:23:38;12.20;99.90
13589;DHT22;6865;52.552;13.434;2022-09-01T05:26:12;12.20;99.90
13589;DHT22;6865;52.552;13.434;2022-09-01T05:28:52;12.20;99.90
13589;DHT22;6865;52.552;13.434;2022-09-01T05:31:23;12.30;99.90
13589;DHT22;6865;52.552;13.434;2022-09-01T05:33:50;12.40;99.90
13589;DHT22;6865;52.552;13.434;2022-09-01T05:36:19;12.30;99.90
13589;DHT22;6865;52.552;13.434;2022-09-01T05:38:47;12.40;99.90
13589;DHT22;6865;52.552;13.434;2022-09-01T05:41:15;12.50;99.90
13589;DHT22;6865;52.552;13.434;2022-09-01T05:43:44;13.10;99.90
13589;DHT22;6865;52.552;13.434;2022-09-01T05:46:25;12.70;99.90
13589;DHT22;6865;52.552;13.434;2022-09-01T05:48:53;12.90;99.90
13589;DHT22;6865;52.552;13.434;2022-09-01T05:51:23;13.20;99.90
13589;DHT22;6865;52.552;13.434;2022-09-01T05:54:10;13.30;99.90
13589;DHT22;6865;52.552;13.434;2022-09-01T05:56:38;13.40;99.90
13589;DHT22;6865;52.552;13.434;2022-09-01T05:59:11;13.30;99.90
13589;DHT22;6865;52.552;13.434;2022-09-01T06:01:54;13.40;99.90
13589;DHT22;6865;52.552;13.434;2022-09-01T06:04:22;13.40;99.90
13589;DHT22;6865;52.552;13.434;2022-09-01T06:06:52;13.50;99.90
13589;DHT22;6865;52.552;13.434;2022-09-01T06:09:39;13.50;99.90
13589;DHT22;6865;52.552;13.434;2022-09-01T06:12:06;13.70;99.90
13589;DHT22;6865;52.552;13.434;2022-09-01T06:14:35;13.80;99.90
13589;DHT22;6865;52.552;13.434;2022-09-01T06:17:01;13.80;99.90
13589;DHT22;6865;52.552;13.434;2022-09-01T06:19:28;13.70;99.90
13589;DHT22;6865;52.552;13.434;2022-09-01T06:22:02;13.80;99.90
13589;DHT22;6865;52.552;13.434;2022-09-01T06:24:29;14.00;99.90
13589;DHT22;6865;52.552;13.434;2022-09-01T06:26:56;14.00;99.90
13589;DHT22;6865;52.552;13.434;2022-09-01T06:29:22;14.10;99.90
13589;DHT22;6865;52.552;13.434;2022-09-01T06:31:49;14.20;99.90
13589;DHT22;6865;52.552;13.434;2022-09-01T06:34:18;14.30;99.90
13589;DHT22;6865;52.552;13.434;2022-09-01T06:36:47;14.30;99.90
13589;DHT22;6865;52.552;13.434;2022-09-01T06:39:15;14.50;99.90
13589;DHT22;6865;52.552;13.434;2022-09-01T06:41:46;14.60;99.90
13589;DHT22;6865;52.552;13.434;2022-09-01T06:44:19;14.70;99.90
13589;DHT22;6865;52.552;13.434;2022-09-01T06:46:49;14.80;99.90
13589;DHT22;6865;52.552;13.434;2022-09-01T06:49:16;14.90;99.90
13589;DHT22;6865;52.552;13.434;2022-09-01T06:51:43;15.00;99.90
13589;DHT22;6865;52.552;13.434;2022-09-01T06:54:14;15.10;99.90
13589;DHT22;6865;52.552;13.434;2022-09-01T06:56:41;15.20;99.90
13589;DHT22;6865;52.552;13.434;2022-09-01T06:59:16;15.30;99.90
13589;DHT22;6865;52.552;13.434;2022-09-01T07:01:43;15.40;99.90
13589;DHT22;6865;52.552;13.434;2022-09-01T07:04:11;15.40;99.90
13589;DHT22;6865;52.552;13.434;2022-09-01T07:06:39;15.60;99.90
13589;DHT22;6865;52.552;13.434;2022-09-01T07:09:27;15.80;99.90
13589;DHT22;6865;52.552;13.434;2022-09-01T07:12:13;15.90;99.90
13589;DHT22;6865;52.552;13.434;2022-09-01T07:14:55;16.00;99.90
13589;DHT22;6865;52.552;13.434;2022-09-01T07:17:51;16.00;99.90
13589;DHT22;6865;52.552;13.434;2022-09-01T07:20:20;16.00;99.90
13589;DHT22;6865;52.552;13.434;2022-09-01T07:22:51;16.20;99.90
13589;DHT22;6865;52.552;13.434;2022-09-01T07:25:37;16.40;99.90
13589;DHT22;6865;52.552;13.434;2022-09-01T07:28:25;16.80;99.90
13589;DHT22;6865;52.552;13.434;2022-09-01T07:31:06;17.00;99.90
13589;DHT22;6865;52.552;13.434;2022-09-01T07:33:56;17.80;99.90
13589;DHT22;6865;52.552;13.434;2022-09-01T07:36:44;18.10;99.90
13589;DHT22;6865;52.552;13.434;2022-09-01T07:39:31;17.80;99.90
13589;DHT22;6865;52.552;13.434;2022-09-01T07:42:16;17.50;99.90
13589;DHT22;6865;52.552;13.434;2022-09-01T07:45:07;17.20;99.90
13589;DHT22;6865;52.552;13.434;2022-09-01T07:47:54;17.00;99.90
13589;DHT22;6865;52.552;13.434;2022-09-01T07:50:21;17.00;99.90
13589;DHT22;6865;52.552;13.434;2022-09-01T07:53:06;17.00;99.90
13589;DHT22;6865;52.552;13.434;2022-09-01T07:55:34;17.10;99.90
13589;DHT22;6865;52.552;13.434;2022-09-01T07:58:01;17.00;99.90
13589;DHT22;6865;52.552;13.434;2022-09-01T08:00:28;17.00;99.90
13589;DHT22;6865;52.552;13.434;2022-09-01T08:02:57;17.00;99.90
13589;DHT22;6865;52.552;13.434;2022-09-01T08:05:24;17.00;99.90
13589;DHT22;6865;52.552;13.434;2022-09-01T08:07:53;16.70;99.90
13589;DHT22;6865;52.552;13.434;2022-09-01T08:10:20;17.10;99.90
13589;DHT22;6865;52.552;13.434;2022-09-01T08:12:47;17.20;99.90
13589;DHT22;6865;52.552;13.434;2022-09-01T08:15:23;17.20;99.90
13589;DHT22;6865;52.552;13.434;2022-09-01T08:18:10;17.30;99.90
13589;DHT22;6865;52.552;13.434;2022-09-01T08:20:40;17.40;99.90
13589;DHT22;6865;52.552;13.434;2022-09-01T08:23:13;17.50;99.90
13589;DHT22;6865;52.552;13.434;2022-09-01T08:25:42;17.60;99.90
13589;DHT22;6865;52.552;13.434;2022-09-01T08:28:10;17.70;99.90
13589;DHT22;6865;52.552;13.434;2022-09-01T08:30:40;17.70;99.90
13589;DHT22;6865;52.552;13.434;2022-09-01T08:33:14;17.70;99.90
13589;DHT22;6865;52.552;13.434;2022-09-01T08:35:43;17.90;99.90
13589;DHT22;6865;52.552;13.434;2022-09-01T08:38:11;17.90;99.90
13589;DHT22;6865;52.552;13.434;2022-09-01T08:40:39;18.00;99.90
13589;DHT22;6865;52.552;13.434;2022-09-01T08:43:41;18.10;99.90
13589;DHT22;6865;52.552;13.434;2022-09-01T08:46:27;18.20;99.90
13589;DHT22;6865;52.552;13.434;2022-09-01T08:48:58;18.30;99.90
13589;DHT22;6865;52.552;13.434;2022-09-01T08:51:55;18.30;99.90
13589;DHT22;6865;52.552;13.434;2022-09-01T08:54:31;18.40;99.90
13589;DHT22;6865;52.552;13.434;2022-09-01T08:57:08;18.50;99.90
13589;DHT22;6865;52.552;13.434;2022-09-01T08:59:36;18.70;99.90
13589;DHT22;6865;52.552;13.434;2022-09-01T09:02:38;18.80;99.90
13589;DHT22;6865;52.552;13.434;2022-09-01T09:05:45;18.80;99.90
13589;DHT22;6865;52.552;13.434;2022-09-01T09:08:50;18.90;99.90
13589;DHT22;6865;52.552;13.434;2022-09-01T09:16:38;18.80;99.90
13589;DHT22;6865;52.552;13.434;2022-09-01T09:22:00;19.00;99.90
13589;DHT22;6865;52.552;13.434;2022-09-01T09:24:31;19.10;99.90
13589;DHT22;6865;52.552;13.434;2022-09-01T09:27:21;19.10;99.90
13589;DHT22;6865;52.552;13.434;2022-09-01T09:29:51;19.10;99.90
13589;DHT22;6865;52.552;13.434;2022-09-01T09:32:20;19.10;99.60
13589;DHT22;6865;52.552;13.434;2022-09-01T09:34:51;19.20;99.30
13589;DHT22;6865;52.552;13.434;2022-09-01T09:37:27;19.30;99.30
13589;DHT22;6865;52.552;13.434;2022-09-01T09:40:26;19.30;99.20
13589;DHT22;6865;52.552;13.434;2022-09-01T09:45:38;19.50;98.70
13589;DHT22;6865;52.552;13.434;2022-09-01T09:48:29;19.60;98.10
13589;DHT22;6865;52.552;13.434;2022-09-01T09:51:19;19.80;96.40
13589;DHT22;6865;52.552;13.434;2022-09-01T09:53:46;19.90;95.00
13589;DHT22;6865;52.552;13.434;2022-09-01T09:56:22;20.00;94.00
13589;DHT22;6865;52.552;13.434;2022-09-01T09:58:51;19.80;93.60
13589;DHT22;6865;52.552;13.434;2022-09-01T10:03:52;20.00;92.70
13589;DHT22;6865;52.552;13.434;2022-09-01T10:06:40;19.80;93.00
13589;DHT22;6865;52.552;13.434;2022-09-01T10:09:14;19.90;93.10
13589;DHT22;6865;52.552;13.434;2022-09-01T10:11:44;19.90;91.80
13589;DHT22;6865;52.552;13.434;2022-09-01T10:14:16;19.90;91.70
13589;DHT22;6865;52.552;13.434;2022-09-01T10:17:10;20.00;91.70
13589;DHT22;6865;52.552;13.434;2022-09-01T10:20:03;20.10;91.20
13589;DHT22;6865;52.552;13.434;2022-09-01T10:22:34;20.20;91.90
13589;DHT22;6865;52.552;13.434;2022-09-01T10:25:03;20.30;90.30
13589;DHT22;6865;52.552;13.434;2022-09-01T10:27:35;20.50;90.00
13589;DHT22;6865;52.552;13.434;2022-09-01T10:30:23;20.60;89.20
13589;DHT22;6865;52.552;13.434;2022-09-01T10:32:56;20.60;87.90
13589;DHT22;6865;52.552;13.434;2022-09-01T10:35:35;20.70;88.00
13589;DHT22;6865;52.552;13.434;2022-09-01T10:38:09;20.90;84.80
13589;DHT22;6865;52.552;13.434;2022-09-01T10:40:38;20.90;84.40
13589;DHT22;6865;52.552;13.434;2022-09-01T10:45:51;21.00;82.90
13589;DHT22;6865;52.552;13.434;2022-09-01T10:48:32;21.00;82.90
13589;DHT22;6865;52.552;13.434;2022-09-01T10:53:52;21.10;81.80
13589;DHT22;6865;52.552;13.434;2022-09-01T10:56:34;21.00;82.40
13589;DHT22;6865;52.552;13.434;2022-09-01T10:59:06;21.00;81.60
13589;DHT22;6865;52.552;13.434;2022-09-01T11:10:22;21.00;79.50
13589;DHT22;6865;52.552;13.434;2022-09-01T11:13:11;20.90;79.90
13589;DHT22;6865;52.552;13.434;2022-09-01T11:15:43;20.70;80.30
13589;DHT22;6865;52.552;13.434;2022-09-01T11:18:25;20.40;83.30
13589;DHT22;6865;52.552;13.434;2022-09-01T11:20:53;20.30;83.10
13589;DHT22;6865;52.552;13.434;2022-09-01T11:23:29;20.20;83.90
13589;DHT22;6865;52.552;13.434;2022-09-01T11:26:00;20.40;81.50
13589;DHT22;6865;52.552;13.434;2022-09-01T11:28:46;20.60;77.40
13589;DHT22;6865;52.552;13.434;2022-09-01T11:31:25;20.90;77.30
13589;DHT22;6865;52.552;13.434;2022-09-01T11:34:18;21.20;76.80
13589;DHT22;6865;52.552;13.434;2022-09-01T11:36:53;21.50;73.90
13589;DHT22;6865;52.552;13.434;2022-09-01T11:39:38;21.80;72.90
13589;DHT22;6865;52.552;13.434;2022-09-01T11:42:30;21.90;71.90
13589;DHT22;6865;52.552;13.434;2022-09-01T11:45:11;22.00;72.50
13589;DHT22;6865;52.552;13.434;2022-09-01T11:48:08;21.90;71.60
13589;DHT22;6865;52.552;13.434;2022-09-01T11:50:39;21.80;71.50
13589;DHT22;6865;52.552;13.434;2022-09-01T11:53:12;21.70;71.30
13589;DHT22;6865;52.552;13.434;2022-09-01T11:55:42;21.60;72.70
13589;DHT22;6865;52.552;13.434;2022-09-01T12:00:56;21.60;72.30
13589;DHT22;6865;52.552;13.434;2022-09-01T12:03:28;21.60;72.00
13589;DHT22;6865;52.552;13.434;2022-09-01T12:05:58;21.50;73.30
13589;DHT22;6865;52.552;13.434;2022-09-01T12:08:30;21.40;75.20
13589;DHT22;6865;52.552;13.434;2022-09-01T12:14:05;21.30;76.90
13589;DHT22;6865;52.552;13.434;2022-09-01T12:16:39;21.20;78.10
13589;DHT22;6865;52.552;13.434;2022-09-01T12:19:07;21.00;79.10
13589;DHT22;6865;52.552;13.434;2022-09-01T12:21:59;20.90;79.90
13589;DHT22;6865;52.552;13.434;2022-09-01T12:24:31;20.90;80.40
13589;DHT22;6865;52.552;13.434;2022-09-01T12:26:59;20.40;80.30
13589;DHT22;6865;52.552;13.434;2022-09-01T12:29:27;20.90;80.50
13589;DHT22;6865;52.552;13.434;2022-09-01T12:31:58;20.80;80.30
13589;DHT22;6865;52.552;13.434;2022-09-01T12:37:20;20.50;80.80
13589;DHT22;6865;52.552;13.434;2022-09-01T12:39:52;20.40;80.90
13589;DHT22;6865;52.552;13.434;2022-09-01T12:44:52;20.40;82.00
13589;DHT22;6865;52.552;13.434;2022-09-01T12:53:00;20.80;80.40
13589;DHT22;6865;52.552;13.434;2022-09-01T12:55:33;20.90;78.80
13589;DHT22;6865;52.552;13.434;2022-09-01T12:58:21;21.10;78.70
13589;DHT22;6865;52.552;13.434;2022-09-01T13:01:03;21.30;78.10
13589;DHT22;6865;52.552;13.434;2022-09-01T13:03:41;21.50;76.30
13589;DHT22;6865;52.552;13.434;2022-09-01T13:06:07;21.70;75.90
13589;DHT22;6865;52.552;13.434;2022-09-01T13:08:35;21.80;75.10
13589;DHT22;6865;52.552;13.434;2022-09-01T13:11:05;21.70;74.90
13589;DHT22;6865;52.552;13.434;2022-09-01T13:13:32;21.70;75.10
13589;DHT22;6865;52.552;13.434;2022-09-01T13:16:02;21.50;74.70
13589;DHT22;6865;52.552;13.434;2022-09-01T13:18:41;21.40;75.00
13589;DHT22;6865;52.552;13.434;2022-09-01T13:21:28;21.40;75.70
13589;DHT22;6865;52.552;13.434;2022-09-01T13:23:56;21.30;76.40
13589;DHT22;6865;52.552;13.434;2022-09-01T13:26:25;21.30;76.30
13589;DHT22;6865;52.552;13.434;2022-09-01T13:28:53;21.30;76.20
13589;DHT22;6865;52.552;13.434;2022-09-01T13:31:20;21.30;76.40
13589;DHT22;6865;52.552;13.434;2022-09-01T13:33:55;21.30;76.60
13589;DHT22;6865;52.552;13.434;2022-09-01T13:36:41;21.30;76.20
13589;DHT22;6865;52.552;13.434;2022-09-01T13:39:13;21.30;76.70
13589;DHT22;6865;52.552;13.434;2022-09-01T13:41:41;21.20;76.30
13589;DHT22;6865;52.552;13.434;2022-09-01T13:44:07;21.40;76.00
13589;DHT22;6865;52.552;13.434;2022-09-01T13:46:35;21.30;75.50
13589;DHT22;6865;52.552;13.434;2022-09-01T13:49:22;21.30;75.60
13589;DHT22;6865;52.552;13.434;2022-09-01T13:52:09;21.30;76.00
13589;DHT22;6865;52.552;13.434;2022-09-01T13:54:35;21.40;76.60
13589;DHT22;6865;52.552;13.434;2022-09-01T13:57:02;21.60;76.10
13589;DHT22;6865;52.552;13.434;2022-09-01T13:59:29;21.60;75.40
13589;DHT22;6865;52.552;13.434;2022-09-01T14:01:56;21.70;74.50
13589;DHT22;6865;52.552;13.434;2022-09-01T14:04:22;21.70;74.80
13589;DHT22;6865;52.552;13.434;2022-09-01T14:06:49;21.70;74.80
13589;DHT22;6865;52.552;13.434;2022-09-01T14:09:17;21.70;74.60
13589;DHT22;6865;52.552;13.434;2022-09-01T14:11:43;21.60;75.90
13589;DHT22;6865;52.552;13.434;2022-09-01T14:14:10;21.70;75.00
13589;DHT22;6865;52.552;13.434;2022-09-01T14:16:37;21.70;75.10
13589;DHT22;6865;52.552;13.434;2022-09-01T14:19:04;21.70;75.20
13589;DHT22;6865;52.552;13.434;2022-09-01T14:21:31;21.80;75.40
13589;DHT22;6865;52.552;13.434;2022-09-01T14:23:58;21.80;75.30
13589;DHT22;6865;52.552;13.434;2022-09-01T14:26:25;21.80;74.40
13589;DHT22;6865;52.552;13.434;2022-09-01T14:28:53;21.70;74.50
13589;DHT22;6865;52.552;13.434;2022-09-01T14:31:21;21.70;74.00
13589;DHT22;6865;52.552;13.434;2022-09-01T14:33:47;21.60;72.30
13589;DHT22;6865;52.552;13.434;2022-09-01T14:36:22;21.50;72.90
13589;DHT22;6865;52.552;13.434;2022-09-01T14:38:49;21.50;73.10
13589;DHT22;6865;52.552;13.434;2022-09-01T14:41:18;21.40;73.10
13589;DHT22;6865;52.552;13.434;2022-09-01T14:43:50;21.40;72.50
13589;DHT22;6865;52.552;13.434;2022-09-01T14:46:18;21.40;73.00
13589;DHT22;6865;52.552;13.434;2022-09-01T14:48:46;21.30;73.60
13589;DHT22;6865;52.552;13.434;2022-09-01T14:51:23;21.30;74.40
13589;DHT22;6865;52.552;13.434;2022-09-01T14:53:52;21.20;73.70
13589;DHT22;6865;52.552;13.434;2022-09-01T14:56:19;21.10;74.80
13589;DHT22;6865;52.552;13.434;2022-09-01T14:58:48;21.00;74.20
13589;DHT22;6865;52.552;13.434;2022-09-01T15:01:16;21.00;74.10
13589;DHT22;6865;52.552;13.434;2022-09-01T15:03:59;21.00;74.20
13589;DHT22;6865;52.552;13.434;2022-09-01T15:06:26;21.10;74.60
13589;DHT22;6865;52.552;13.434;2022-09-01T15:08:53;21.20;73.50
13589;DHT22;6865;52.552;13.434;2022-09-01T15:11:20;21.20;73.70
13589;DHT22;6865;52.552;13.434;2022-09-01T15:13:47;21.30;73.20
13589;DHT22;6865;52.552;13.434;2022-09-01T15:16:21;21.60;72.20
13589;DHT22;6865;52.552;13.434;2022-09-01T15:18:48;21.70;72.60
13589;DHT22;6865;52.552;13.434;2022-09-01T15:21:24;21.80;73.50
13589;DHT22;6865;52.552;13.434;2022-09-01T15:23:51;21.90;73.90
13589;DHT22;6865;52.552;13.434;2022-09-01T15:26:20;21.90;73.90
13589;DHT22;6865;52.552;13.434;2022-09-01T15:28:48;21.80;73.60
13589;DHT22;6865;52.552;13.434;2022-09-01T15:31:17;21.60;74.40
13589;DHT22;6865;52.552;13.434;2022-09-01T15:33:55;21.40;73.80
13589;DHT22;6865;52.552;13.434;2022-09-01T15:36:24;21.30;74.60
13589;DHT22;6865;52.552;13.434;2022-09-01T15:38:51;21.20;75.20
13589;DHT22;6865;52.552;13.434;2022-09-01T15:41:22;21.20;75.50
13589;DHT22;6865;52.552;13.434;2022-09-01T15:43:50;21.20;76.10
13589;DHT22;6865;52.552;13.434;2022-09-01T15:46:18;21.20;76.10
13589;DHT22;6865;52.552;13.434;2022-09-01T15:48:45;21.30;75.40
13589;DHT22;6865;52.552;13.434;2022-09-01T15:53:44;21.30;75.40
13589;DHT22;6865;52.552;13.434;2022-09-01T15:56:11;21.20;74.80
13589;DHT22;6865;52.552;13.434;2022-09-01T15:58:38;21.10;74.70
13589;DHT22;6865;52.552;13.434;2022-09-01T16:01:25;21.00;75.40
13589;DHT22;6865;52.552;13.434;2022-09-01T16:03:53;21.00;75.30
13589;DHT22;6865;52.552;13.434;2022-09-01T16:06:20;20.90;75.20
13589;DHT22;6865;52.552;13.434;2022-09-01T16:08:47;20.80;75.40
13589;DHT22;6865;52.552;13.434;2022-09-01T16:11:14;20.70;75.70
13589;DHT22;6865;52.552;13.434;2022-09-01T16:13:41;20.60;75.90
13589;DHT22;6865;52.552;13.434;2022-09-01T16:19:15;20.50;76.10
13589;DHT22;6865;52.552;13.434;2022-09-01T16:22:24;20.30;76.70
13589;DHT22;6865;52.552;13.434;2022-09-01T16:24:54;22.00;78.10
13589;DHT22;6865;52.552;13.434;2022-09-01T16:27:31;20.20;77.20
13589;DHT22;6865;52.552;13.434;2022-09-01T16:30:05;20.10;77.40
13589;DHT22;6865;52.552;13.434;2022-09-01T16:32:34;20.10;77.30
13589;DHT22;6865;52.552;13.434;2022-09-01T16:35:02;20.00;78.10
13589;DHT22;6865;52.552;13.434;2022-09-01T16:37:42;19.90;78.40
13589;DHT22;6865;52.552;13.434;2022-09-01T16:43:18;19.90;78.90
13589;DHT22;6865;52.552;13.434;2022-09-01T16:48:45;19.90;80.20
13589;DHT22;6865;52.552;13.434;2022-09-01T16:51:39;19.90;81.70
13589;DHT22;6865;52.552;13.434;2022-09-01T16:54:29;19.80;82.50
13589;DHT22;6865;52.552;13.434;2022-09-01T16:59:55;19.70;84.50
13589;DHT22;6865;52.552;13.434;2022-09-01T17:02:31;19.70;85.30